Time;durP1;ratioP1;P1;durP2;ratioP2;P2;SDS_P1;SDS_P2;PMS_P1;PMS_P2;Temp;Humidity;BMP_temperature;BMP_pressure;BME280_temperature;BME280_humidity;BME280_pressure;Samples;Min_cycle;Max_cycle;Signal;HPM_P1;HPM_P2
2022/04/20 00:01:13;;;;;;;0.30;0.30;;;;;;;4.06;54.97;98431.50;5051736;28;20176;-65
2022/04/20 00:03:39;;;;;;;1.77;0.32;;;;;;;4.07;54.96;98434.03;5051972;28;20183;-63
2022/04/20 00:06:05;;;;;;;0.40;0.40;;;;;;;4.07;54.90;98423.16;5051354;28;20041;-64
2022/04/20 00:08:33;;;;;;;0.52;0.52;;;;;;;4.09;55.00;98436.53;5051468;28;20102;-63
2022/04/20 00:11:00;;;;;;;1.65;0.32;;;;;;;4.08;55.14;98430.28;5033873;28;20073;-63
2022/04/20 00:13:25;;;;;;;0.70;0.70;;;;;;;4.07;55.01;98434.03;5051643;28;20041;-64
2022/04/20 00:15:51;;;;;;;0.47;0.47;;;;;;;4.05;55.20;98425.25;5051694;28;20064;-64
2022/04/20 00:18:17;;;;;;;1.85;0.55;;;;;;;4.04;55.25;98427.09;5051494;28;20076;-64
2022/04/20 00:20:43;;;;;;;0.52;0.35;;;;;;;4.06;55.24;98429.63;5051443;28;20037;-63
2022/04/20 00:23:08;;;;;;;2.10;0.60;;;;;;;4.07;55.28;98434.03;5051396;28;20037;-63
2022/04/20 00:25:34;;;;;;;0.40;0.40;;;;;;;4.07;55.29;98422.31;5051572;28;20120;-63
2022/04/20 00:28:00;;;;;;;0.30;0.30;;;;;;;4.08;55.11;98423.97;5053295;28;20426;-63
2022/04/20 00:30:26;;;;;;;0.68;0.40;;;;;;;4.11;55.12;98429.88;5055575;28;20395;-64
2022/04/20 00:32:51;;;;;;;0.57;0.57;;;;;;;4.16;55.02;98431.97;5055806;28;20513;-64
2022/04/20 00:35:17;;;;;;;2.08;0.70;;;;;;;4.23;55.17;98421.13;5062142;28;20074;-63
2022/04/20 00:37:43;;;;;;;0.70;0.70;;;;;;;4.31;54.90;98424.50;5074962;28;20059;-64
2022/04/20 00:40:10;;;;;;;0.30;0.30;;;;;;;4.38;54.80;98421.81;5075211;28;20036;-63
2022/04/20 00:42:40;;;;;;;0.40;0.30;;;;;;;4.36;54.92;98416.56;5068632;28;20037;-64
2022/04/20 00:45:10;;;;;;;0.65;0.43;;;;;;;4.33;55.13;98419.69;5055697;28;20102;-63
2022/04/20 00:47:38;;;;;;;0.77;0.77;;;;;;;4.34;55.29;98423.25;5066056;28;20045;-65
2022/04/20 00:50:06;;;;;;;0.30;0.30;;;;;;;4.32;55.17;98426.16;5067381;28;20044;-63
2022/04/20 00:52:32;;;;;;;0.22;0.22;;;;;;;4.32;55.32;98422.63;5067916;28;20099;-63
2022/04/20 00:54:58;;;;;;;0.82;0.82;;;;;;;4.30;55.33;98411.97;5054932;28;20048;-64
2022/04/20 00:57:25;;;;;;;0.35;0.35;;;;;;;4.30;55.30;98411.97;5067117;28;20064;-65
2022/04/20 00:59:52;;;;;;;0.30;0.30;;;;;;;4.33;55.54;98410.72;5074682;28;20135;-64
2022/04/20 01:02:19;;;;;;;0.65;0.65;;;;;;;4.35;55.30;98414.06;5070520;28;20066;-62
2022/04/20 01:04:45;;;;;;;0.77;0.70;;;;;;;4.36;55.39;98413.03;5072699;28;20052;-66
2022/04/20 01:07:12;;;;;;;0.40;0.40;;;;;;;4.37;55.48;98406.53;5045276;28;20040;-63
2022/04/20 01:09:42;;;;;;;0.52;0.47;;;;;;;4.36;55.62;98402.97;5056710;28;20068;-66
2022/04/20 01:12:08;;;;;;;0.40;0.40;;;;;;;4.38;55.50;98408.22;5066039;28;20136;-64
2022/04/20 01:14:35;;;;;;;0.43;0.43;;;;;;;4.35;55.37;98401.28;5058691;28;20040;-65
2022/04/20 01:17:02;;;;;;;0.40;0.40;;;;;;;4.36;55.46;98404.88;5055070;28;20466;-63
2022/04/20 01:20:17;;;;;;;0.50;0.50;;;;;;;4.44;55.37;98396.50;5064353;28;20048;-63
2022/04/20 01:23:23;;;;;;;0.50;0.50;;;;;;;4.45;55.41;98403.63;5074708;28;20045;-64
2022/04/20 01:33:14;;;;;;;1.40;0.45;;;;;;;4.61;54.84;98380.66;5068190;28;20044;-64
2022/04/20 01:36:20;;;;;;;1.08;0.80;;;;;;;4.65;54.96;98386.50;5071484;28;20033;-65
2022/04/20 01:46:11;;;;;;;0.75;0.73;;;;;;;4.87;54.50;98379.00;5067760;28;20419;-64
2022/04/20 01:49:16;;;;;;;0.68;0.68;;;;;;;4.93;54.58;98383.59;5073992;28;20064;-64
2022/04/20 01:52:22;;;;;;;5.00;0.50;;;;;;;5.00;54.45;98389.06;5074213;28;20044;-65
2022/04/20 01:55:27;;;;;;;0.40;0.40;;;;;;;5.06;54.29;98394.50;5073892;28;20099;-65
2022/04/20 01:58:13;;;;;;;;;;;;;;;5.13;54.15;98397.22;5069131;28;20507;-64
2022/04/20 02:04:41;;;;;;;0.30;0.30;;;;;;;5.38;53.65;98388.41;5072899;28;20067;-64
2022/04/20 02:07:47;;;;;;;0.32;0.32;;;;;;;5.42;53.80;98386.94;5068883;28;20045;-62
2022/04/20 02:10:52;;;;;;;0.70;0.68;;;;;;;5.47;53.57;98387.13;5072889;28;20419;-61
2022/04/20 02:17:21;;;;;;;0.30;0.30;;;;;;;5.68;53.40;98383.28;5071146;28;20117;-65
2022/04/20 02:30:36;;;;;;;0.43;0.43;;;;;;;6.49;51.90;98368.31;5054111;28;20098;-66
2022/04/20 02:33:41;;;;;;;0.30;0.30;;;;;;;6.61;51.80;98371.16;5066292;28;20048;-68
2022/04/20 02:40:11;;;;;;;3.40;0.63;;;;;;;6.64;52.13;98372.59;5065082;28;20059;-66
2022/04/20 02:43:16;;;;;;;0.55;0.50;;;;;;;6.61;52.24;98382.09;5059730;28;20446;-68
2022/04/20 02:49:45;;;;;;;0.65;0.65;;;;;;;6.58;52.59;98374.34;5060118;28;20059;-66
2022/04/20 02:52:50;;;;;;;0.40;0.40;;;;;;;6.55;52.71;98380.25;5051408;28;20040;-63
2022/04/20 02:55:56;;;;;;;0.90;0.55;;;;;;;6.61;52.67;98376.63;5052704;28;20419;-63
2022/04/20 02:59:01;;;;;;;0.30;0.30;;;;;;;6.53;52.71;98374.16;5034544;28;20041;-63
2022/04/20 03:02:07;;;;;;;0.60;0.60;;;;;;;6.57;52.79;98374.56;5056092;28;20048;-65
2022/04/20 03:04:52;;;;;;;;;;;;;;;6.69;52.46;98375.50;5068474;28;20100;-66
2022/04/20 03:07:58;;;;;;;0.85;0.85;;;;;;;6.82;52.22;98366.41;5072982;28;19920;-68
2022/04/20 03:11:04;;;;;;;0.47;0.47;;;;;;;6.97;52.03;98363.34;5072421;28;20132;-64
2022/04/20 03:14:09;;;;;;;0.30;0.30;;;;;;;7.17;51.69;98376.84;5072629;28;20123;-65
2022/04/20 03:24:02;;;;;;;0.20;0.20;;;;;;;7.55;51.06;98362.16;5054657;28;20614;-64
2022/04/20 03:27:08;;;;;;;1.45;0.40;;;;;;;7.64;50.97;98362.69;5053273;28;20052;-63
2022/04/20 03:29:34;;;;;;;0.40;0.40;;;;;;;7.75;50.73;98358.41;5057670;28;20069;-65
2022/04/20 03:32:09;;;;;;;0.20;0.20;;;;;;;7.93;50.55;98358.38;5033778;28;20053;-65
2022/04/20 03:34:35;;;;;;;0.38;0.32;;;;;;;7.88;50.66;98358.25;5050786;28;20040;-63
2022/04/20 03:37:00;;;;;;;0.65;0.65;;;;;;;7.92;50.74;98356.72;5051630;28;20043;-63
2022/04/20 03:39:26;;;;;;;0.73;0.73;;;;;;;8.03;50.56;98357.84;5050609;28;20075;-63
2022/04/20 03:41:52;;;;;;;0.93;0.50;;;;;;;8.17;50.43;98355.75;5052521;28;20492;-63
2022/04/20 03:44:18;;;;;;;0.28;0.28;;;;;;;8.25;50.22;98350.81;5052546;28;20119;-63
2022/04/20 03:46:43;;;;;;;0.20;0.20;;;;;;;8.30;50.20;98352.84;5052145;28;20052;-64
2022/04/20 03:49:09;;;;;;;0.65;0.30;;;;;;;8.32;50.44;98356.19;5052217;28;20040;-64
2022/04/20 03:51:36;;;;;;;0.50;0.50;;;;;;;8.34;50.20;98361.44;5051973;28;20076;-65
2022/04/20 03:54:03;;;;;;;0.80;0.80;;;;;;;8.57;49.87;98363.47;5051869;28;20526;-65
2022/04/20 03:57:03;;;;;;;0.20;0.20;;;;;;;9.42;48.31;98365.03;5052268;28;20045;-64
2022/04/20 03:59:14;;;;;;;0.30;0.30;;;;;;;11.55;44.71;98344.88;5051669;28;20115;-62
2022/04/20 04:01:40;;;;;;;0.47;0.47;;;;;;;14.34;40.26;98340.81;5051077;28;20511;-65
2022/04/20 04:04:05;;;;;;;0.30;0.30;;;;;;;17.08;36.93;98338.41;5051206;28;20444;-64
2022/04/20 04:06:31;;;;;;;0.32;0.32;;;;;;;19.59;34.28;98328.81;5052179;28;20037;-65
2022/04/20 04:08:57;;;;;;;0.20;0.20;;;;;;;21.42;33.03;98322.69;5052151;28;20079;-65
2022/04/20 04:11:22;;;;;;;0.20;0.20;;;;;;;22.88;32.20;98311.59;5051980;28;20037;-64
2022/04/20 04:13:48;;;;;;;2.88;0.80;;;;;;;24.04;31.37;98305.47;5052176;28;20045;-65
2022/04/20 04:16:13;;;;;;;0.32;0.32;;;;;;;24.76;31.44;98311.19;5051607;28;20504;-64
2022/04/20 04:18:39;;;;;;;0.10;0.10;;;;;;;25.33;31.41;98315.38;5051988;28;20519;-64
2022/04/20 04:21:05;;;;;;;0.20;0.20;;;;;;;26.17;30.79;98306.69;5051931;28;20388;-65
2022/04/20 04:23:30;;;;;;;0.28;0.28;;;;;;;27.03;30.87;98297.34;5051804;28;20045;-65
2022/04/20 04:25:56;;;;;;;0.40;0.40;;;;;;;27.80;30.46;98295.47;5052011;28;20543;-65
2022/04/20 04:28:22;;;;;;;0.10;0.10;;;;;;;28.19;30.39;98292.84;5051869;28;20045;-65
2022/04/20 04:30:48;;;;;;;0.25;0.25;;;;;;;28.84;30.13;98285.91;5051655;28;20563;-64
2022/04/20 04:33:14;;;;;;;0.40;0.15;;;;;;;29.41;29.58;98277.03;5051604;28;20095;-64
2022/04/20 04:35:40;;;;;;;0.10;0.10;;;;;;;28.86;30.71;98280.72;5051200;28;20075;-64
2022/04/20 04:38:05;;;;;;;0.10;0.10;;;;;;;26.39;33.52;98276.44;5052119;28;20131;-64
2022/04/20 04:40:31;;;;;;;0.75;0.40;;;;;;;23.54;37.51;98288.16;5051745;28;20128;-64
2022/04/20 04:42:57;;;;;;;0.17;0.17;;;;;;;21.32;40.58;98284.72;5051691;28;20037;-68
2022/04/20 04:50:51;;;;;;;;;;;;;;;18.78;42.83;98270.59;5052454;28;20114;-66
2022/04/20 04:53:17;;;;;;;0.28;0.28;;;;;;;18.53;42.51;98283.75;5051772;28;19920;-66
2022/04/20 04:55:43;;;;;;;0.15;0.15;;;;;;;18.07;42.61;98267.72;5051474;28;20079;-66
2022/04/20 04:58:09;;;;;;;0.40;0.40;;;;;;;17.75;42.33;98266.41;5051409;28;20045;-66
2022/04/20 05:00:35;;;;;;;0.43;0.43;;;;;;;17.31;42.29;98271.06;5051312;28;20152;-65
2022/04/20 05:03:01;;;;;;;0.10;0.10;;;;;;;17.05;42.46;98267.69;5051588;28;20048;-64
2022/04/20 05:05:27;;;;;;;0.47;0.47;;;;;;;16.82;42.42;98264.50;5051321;28;20435;-64
2022/04/20 05:07:54;;;;;;;0.40;0.40;;;;;;;16.41;42.45;98258.41;5051395;28;20110;-64
2022/04/20 05:10:23;;;;;;;2.60;0.40;;;;;;;16.06;42.33;98254.72;5051487;28;20396;-65
2022/04/20 05:12:48;;;;;;;0.52;0.52;;;;;;;15.69;42.74;98256.78;5051430;28;20578;-64
2022/04/20 05:15:14;;;;;;;0.47;0.47;;;;;;;15.33;42.50;98256.91;5054851;28;20119;-64
2022/04/20 05:17:40;;;;;;;1.55;0.50;;;;;;;14.92;42.84;98251.41;5054920;28;20040;-67
2022/04/20 05:20:06;;;;;;;1.08;1.00;;;;;;;14.73;42.84;98253.06;5055064;28;20045;-66
2022/04/20 05:22:32;;;;;;;3.20;0.63;;;;;;;14.70;42.31;98255.28;5055314;28;20037;-65
2022/04/20 05:24:58;;;;;;;1.80;0.55;;;;;;;14.95;41.76;98253.63;5054732;28;20411;-64
2022/04/20 05:27:24;;;;;;;1.35;0.40;;;;;;;15.21;41.18;98254.44;5054344;28;20033;-64
2022/04/20 05:29:49;;;;;;;1.02;0.55;;;;;;;15.41;40.52;98256.34;5054709;28;20041;-64
2022/04/20 05:32:15;;;;;;;0.30;0.30;;;;;;;15.38;40.59;98250.53;5055103;28;20538;-65
2022/04/20 05:34:41;;;;;;;2.55;0.50;;;;;;;15.29;40.44;98250.25;5054074;28;20041;-64
2022/04/20 05:42:36;;;;;;;0.70;0.52;;;;;;;14.63;40.82;98249.19;5055062;28;20040;-64
2022/04/20 05:45:02;;;;;;;0.57;0.55;;;;;;;14.37;41.21;98251.09;5054032;28;20064;-65
2022/04/20 05:47:29;;;;;;;0.30;0.30;;;;;;;14.15;41.16;98249.38;5054395;28;20487;-65
2022/04/20 05:49:55;;;;;;;0.75;0.75;;;;;;;14.18;40.94;98245.25;5054482;28;20152;-64
2022/04/20 05:52:21;;;;;;;1.48;1.35;;;;;;;14.14;40.87;98233.91;5054051;28;20068;-69
2022/04/20 05:54:46;;;;;;;4.70;1.00;;;;;;;13.92;41.18;98236.06;5054388;28;20119;-64
2022/04/20 05:57:12;;;;;;;0.95;0.95;;;;;;;13.57;41.55;98235.63;5054387;28;20037;-64
2022/04/20 05:59:38;;;;;;;1.02;1.00;;;;;;;13.41;41.60;98222.84;5053917;28;20049;-63
2022/04/20 06:02:04;;;;;;;2.80;1.02;;;;;;;13.24;41.63;98226.59;5054509;28;20068;-64
2022/04/20 06:04:30;;;;;;;0.95;0.90;;;;;;;13.06;41.57;98227.03;5035822;28;20400;-65
2022/04/20 06:06:56;;;;;;;0.60;0.60;;;;;;;12.77;41.92;98224.63;5053813;28;20033;-65
2022/04/20 06:09:21;;;;;;;0.68;0.50;;;;;;;12.55;42.02;98221.97;5053843;28;20044;-66
2022/04/20 06:11:48;;;;;;;1.45;1.02;;;;;;;12.35;41.96;98219.84;5054241;28;20045;-64
2022/04/20 06:14:13;;;;;;;1.88;1.00;;;;;;;12.10;42.26;98215.75;5052621;28;20423;-64
2022/04/20 06:16:39;;;;;;;1.20;0.90;;;;;;;11.97;42.22;98221.66;5053998;28;20048;-64
2022/04/20 06:19:07;;;;;;;1.60;1.23;;;;;;;11.83;41.92;98222.03;5053644;28;20051;-64
2022/04/20 06:21:33;;;;;;;0.30;0.30;;;;;;;11.68;41.98;98213.63;5053578;28;20033;-64
2022/04/20 06:24:00;;;;;;;1.73;0.73;;;;;;;11.69;41.76;98207.03;5053711;28;20141;-62
2022/04/20 06:26:26;;;;;;;0.43;0.43;;;;;;;11.59;41.63;98210.50;5052862;28;20044;-64
2022/04/20 06:28:51;;;;;;;0.20;0.20;;;;;;;11.36;41.88;98195.91;5053479;28;20044;-64
2022/04/20 06:31:17;;;;;;;0.40;0.40;;;;;;;11.18;41.93;98193.47;5053233;28;20041;-64
2022/04/20 06:33:43;;;;;;;2.65;1.17;;;;;;;11.15;41.84;98188.50;5053756;28;20041;-64
2022/04/20 06:36:08;;;;;;;0.80;0.80;;;;;;;11.19;41.61;98182.22;5052735;28;20103;-63
2022/04/20 06:38:34;;;;;;;0.70;0.70;;;;;;;11.25;41.19;98176.78;5053387;28;20049;-63
2022/04/20 06:41:00;;;;;;;0.45;0.45;;;;;;;11.25;41.13;98176.78;5053489;28;20561;-66
2022/04/20 06:43:25;;;;;;;1.48;0.90;;;;;;;11.22;41.10;98178.97;5053604;28;20059;-64
2022/04/20 06:45:52;;;;;;;0.95;0.95;;;;;;;11.24;40.87;98170.47;5053125;28;20044;-63
2022/04/20 06:48:17;;;;;;;0.30;0.30;;;;;;;11.32;40.87;98163.69;5052910;28;20041;-65
2022/04/20 06:50:43;;;;;;;2.90;1.10;;;;;;;11.38;40.68;98165.41;5053132;28;20524;-64
2022/04/20 06:58:41;;;;;;;0.28;0.28;;;;;;;11.42;40.40;98163.00;5053263;28;20111;-65
2022/04/20 07:01:08;;;;;;;0.38;0.38;;;;;;;11.44;40.14;98164.41;5052579;28;20053;-64
2022/04/20 07:03:35;;;;;;;0.50;0.50;;;;;;;11.44;40.22;98153.41;5053340;28;20049;-64
2022/04/20 07:06:02;;;;;;;0.85;0.63;;;;;;;11.44;40.14;98147.91;5052513;28;20029;-64
2022/04/20 07:08:30;;;;;;;0.20;0.20;;;;;;;11.46;39.89;98167.72;5053270;28;20049;-65
2022/04/20 07:10:58;;;;;;;1.17;1.00;;;;;;;11.46;39.73;98166.91;5052982;28;20056;-64
2022/04/20 07:13:24;;;;;;;1.40;0.77;;;;;;;11.49;39.65;98147.97;5052578;28;20045;-65
2022/04/20 07:15:50;;;;;;;0.50;0.50;;;;;;;11.52;39.51;98152.94;5034751;28;20437;-64
2022/04/20 07:18:16;;;;;;;3.20;1.65;;;;;;;11.49;39.60;98161.72;5052702;28;20040;-64
2022/04/20 07:20:42;;;;;;;0.50;0.50;;;;;;;11.51;39.39;98161.44;5052612;28;20103;-65
2022/04/20 07:23:09;;;;;;;0.45;0.45;;;;;;;11.58;39.40;98154.66;5052789;28;20470;-63
2022/04/20 07:25:36;;;;;;;0.20;0.20;;;;;;;11.57;39.05;98158.50;5052706;28;20514;-64
2022/04/20 07:28:03;;;;;;;0.35;0.35;;;;;;;11.46;39.26;98153.97;5052183;28;20045;-65
2022/04/20 07:30:29;;;;;;;0.43;0.43;;;;;;;11.43;39.41;98153.66;5052221;28;20095;-65
2022/04/20 07:32:55;;;;;;;17.63;2.08;;;;;;;11.51;38.99;98158.69;5052309;28;20075;-64
2022/04/20 07:35:21;;;;;;;3.00;0.55;;;;;;;11.54;39.06;98150.78;5051802;28;20036;-65
2022/04/20 07:37:46;;;;;;;0.45;0.45;;;;;;;11.58;38.98;98154.66;5052171;28;20141;-63
2022/04/20 07:40:15;;;;;;;0.55;0.55;;;;;;;11.63;38.87;98153.06;5051857;28;20041;-65
2022/04/20 07:42:42;;;;;;;0.30;0.30;;;;;;;11.69;38.79;98147.38;5051936;28;20546;-67
2022/04/20 07:45:09;;;;;;;1.25;0.93;;;;;;;11.67;38.79;98145.97;5052301;28;20164;-64
2022/04/20 07:47:34;;;;;;;0.20;0.20;;;;;;;11.63;38.88;98151.16;5052221;28;20124;-64
2022/04/20 07:50:18;;;;;;;0.22;0.22;;;;;;;11.68;38.79;98139.38;5052471;28;20068;-64
2022/04/20 07:52:49;;;;;;;0.55;0.55;;;;;;;11.80;38.43;98142.78;5052355;28;20047;-64
2022/04/20 07:55:23;;;;;;;0.20;0.20;;;;;;;11.85;38.43;98137.38;5051833;28;20040;-64
2022/04/20 07:57:51;;;;;;;0.43;0.43;;;;;;;11.97;38.08;98119.88;5052018;28;20036;-65
2022/04/20 08:00:17;;;;;;;0.35;0.35;;;;;;;12.08;37.96;98130.72;5051921;28;20127;-65
2022/04/20 08:02:44;;;;;;;0.73;0.63;;;;;;;12.20;37.73;98127.78;5051856;28;20055;-64
2022/04/20 08:05:11;;;;;;;0.20;0.20;;;;;;;12.21;37.93;98123.13;5051483;28;20056;-64
2022/04/20 08:07:37;;;;;;;0.20;0.20;;;;;;;12.21;37.89;98134.97;5057020;28;20045;-64
2022/04/20 08:10:06;;;;;;;0.35;0.35;;;;;;;12.12;37.81;98127.44;5071150;28;20045;-63
2022/04/20 08:12:43;;;;;;;0.65;0.65;;;;;;;12.09;37.85;98121.38;5070565;28;20036;-63
2022/04/20 08:15:10;;;;;;;0.20;0.20;;;;;;;12.13;37.70;98118.09;5070345;28;20191;-63
2022/04/20 08:17:37;;;;;;;8.75;0.77;;;;;;;12.12;37.92;98114.53;5071186;28;20495;-63
2022/04/20 08:20:05;;;;;;;1.77;0.47;;;;;;;12.11;37.83;98107.34;5052368;28;20036;-65
2022/04/20 08:22:31;;;;;;;0.50;0.43;;;;;;;12.24;37.84;98108.84;5070454;28;20037;-63
2022/04/20 08:24:57;;;;;;;0.20;0.20;;;;;;;12.54;37.17;98097.19;5070572;28;20052;-63
2022/04/20 08:27:23;;;;;;;0.15;0.15;;;;;;;12.91;36.88;98103.75;5052429;28;20047;-64
2022/04/20 08:29:51;;;;;;;0.10;0.10;;;;;;;13.21;36.45;98102.28;5070695;28;20043;-63
2022/04/20 08:32:18;;;;;;;0.20;0.20;;;;;;;13.31;36.17;98096.78;5070461;28;20047;-63
2022/04/20 08:34:45;;;;;;;0.25;0.25;;;;;;;13.35;36.20;98095.16;5070177;28;20044;-63
2022/04/20 08:37:11;;;;;;;0.13;0.13;;;;;;;13.39;36.46;98095.47;5070491;28;20041;-63
2022/04/20 08:39:39;;;;;;;1.27;1.15;;;;;;;13.36;36.44;98091.31;5070503;28;20051;-64
2022/04/20 08:42:07;;;;;;;0.20;0.20;;;;;;;13.18;36.64;98097.28;5070394;28;20068;-64
2022/04/20 08:44:37;;;;;;;0.20;0.20;;;;;;;12.86;37.11;98096.31;5070805;28;20036;-62
2022/04/20 08:47:07;;;;;;;0.40;0.40;;;;;;;12.48;37.55;98091.94;5070859;28;20043;-63
2022/04/20 08:49:33;;;;;;;0.30;0.30;;;;;;;12.25;37.77;98102.25;5055780;28;20041;-64
2022/04/20 08:54:45;;;;;;;4.13;0.40;;;;;;;12.03;37.91;98105.09;5074723;28;20063;-64
2022/04/20 08:57:15;;;;;;;0.20;0.20;;;;;;;11.99;38.22;98096.53;5074136;28;20040;-62
2022/04/20 08:59:43;;;;;;;0.47;0.47;;;;;;;11.89;37.91;98096.41;5073909;28;20489;-66
2022/04/20 09:02:13;;;;;;;0.20;0.20;;;;;;;11.80;38.04;98098.78;5071577;28;20040;-62
2022/04/20 09:04:39;;;;;;;0.10;0.10;;;;;;;11.83;37.96;98098.25;5055481;28;20154;-63
2022/04/20 09:07:08;;;;;;;0.20;0.20;;;;;;;11.92;37.50;98099.47;5073951;28;20047;-66
2022/04/20 09:09:35;;;;;;;0.20;0.20;;;;;;;11.98;37.59;98088.53;5073781;28;20048;-62
2022/04/20 09:12:02;;;;;;;0.20;0.20;;;;;;;11.96;37.54;98098.97;5072779;28;20075;-63
2022/04/20 09:14:31;;;;;;;0.50;0.50;;;;;;;11.90;37.47;98089.81;5072825;28;20059;-63
2022/04/20 09:16:57;;;;;;;0.20;0.20;;;;;;;11.94;37.63;98101.16;5071401;28;20600;-63
2022/04/20 09:19:26;;;;;;;0.50;0.50;;;;;;;11.97;37.55;98081.34;5073544;28;20126;-62
2022/04/20 09:21:52;;;;;;;0.77;0.47;;;;;;;11.87;37.30;98102.16;5073828;28;20045;-64
2022/04/20 09:24:18;;;;;;;0.20;0.20;;;;;;;11.79;37.59;98096.31;5073498;28;20044;-64
2022/04/20 09:26:56;;;;;;;0.47;0.47;;;;;;;11.83;37.24;98092.75;5073555;28;20415;-64
2022/04/20 09:29:22;;;;;;;0.30;0.30;;;;;;;12.00;37.11;98095.44;5073597;28;20048;-64
2022/04/20 09:31:53;;;;;;;0.13;0.13;;;;;;;12.25;36.80;98094.00;5055540;28;20119;-68
2022/04/20 09:37:14;;;;;;;0.30;0.30;;;;;;;12.65;36.30;98089.84;5073622;28;20573;-63
2022/04/20 09:39:47;;;;;;;0.20;0.20;;;;;;;12.74;35.87;98076.41;5073208;28;20095;-63
2022/04/20 09:42:14;;;;;;;0.30;0.30;;;;;;;12.88;35.83;98085.84;5055330;28;20458;-63
2022/04/20 09:44:53;;;;;;;0.45;0.45;;;;;;;13.11;35.78;98083.75;5073511;28;20287;-63
2022/04/20 09:50:35;;;;;;;0.20;0.20;;;;;;;13.54;35.22;98078.13;5047583;28;20157;-62
2022/04/20 09:53:07;;;;;;;0.43;0.43;;;;;;;13.91;34.95;98069.63;5061073;28;20487;-61
2022/04/20 09:55:37;;;;;;;0.30;0.30;;;;;;;14.32;34.38;98080.66;5059304;28;20103;-62
2022/04/20 09:58:19;;;;;;;0.40;0.40;;;;;;;14.61;33.86;98076.50;5065962;28;20052;-63
2022/04/20 10:00:46;;;;;;;0.20;0.20;;;;;;;14.77;33.92;98063.50;5056585;28;20507;-64
2022/04/20 10:03:29;;;;;;;0.57;0.57;;;;;;;14.74;34.25;98075.94;5058137;28;20072;-64
2022/04/20 10:05:56;;;;;;;0.20;0.20;;;;;;;14.72;34.23;98069.84;5057034;28;20041;-63
2022/04/20 10:08:26;;;;;;;0.20;0.20;;;;;;;14.53;34.85;98069.59;5066342;28;20560;-63
2022/04/20 10:10:54;;;;;;;1.35;0.50;;;;;;;14.35;34.84;98071.00;5045087;28;20044;-61
2022/04/20 10:13:21;;;;;;;0.77;0.60;;;;;;;14.24;35.17;98070.19;5072862;28;20493;-63
2022/04/20 10:16:07;;;;;;;3.63;1.27;;;;;;;14.15;35.15;98058.88;5068883;28;20110;-64
2022/04/20 10:18:37;;;;;;;0.20;0.20;;;;;;;14.17;35.19;98069.63;5067599;28;20097;-63
2022/04/20 10:21:06;;;;;;;0.20;0.20;;;;;;;14.19;35.27;98065.50;5058958;28;20045;-65
2022/04/20 10:23:34;;;;;;;1.38;0.93;;;;;;;14.20;35.10;98069.91;5052857;28;20045;-62
2022/04/20 10:26:05;;;;;;;0.10;0.10;;;;;;;14.23;35.10;98076.81;5052433;28;20048;-63
2022/04/20 10:29:05;;;;;;;0.10;0.10;;;;;;;14.14;35.10;98067.44;5067958;28;20098;-65
2022/04/20 10:31:58;;;;;;;0.10;0.10;;;;;;;13.96;35.52;98072.41;5065750;28;20533;-63
2022/04/20 10:34:25;;;;;;;0.25;0.25;;;;;;;13.94;35.61;98073.75;5052136;28;20052;-65
2022/04/20 10:37:05;;;;;;;0.73;0.43;;;;;;;13.84;35.59;98072.66;5052404;28;20041;-65
2022/04/20 10:39:37;;;;;;;0.20;0.20;;;;;;;13.79;35.93;98069.06;5060131;28;20157;-67
2022/04/20 10:42:11;;;;;;;1.52;0.40;;;;;;;13.84;35.43;98063.56;5065286;28;20424;-65
2022/04/20 10:44:58;;;;;;;1.20;0.40;;;;;;;13.82;35.63;98063.00;5062747;28;20107;-65
2022/04/20 10:47:28;;;;;;;0.10;0.10;;;;;;;13.76;35.46;98064.09;5052459;28;20048;-65
2022/04/20 10:50:13;;;;;;;0.20;0.20;;;;;;;13.70;35.78;98065.19;5061647;28;20040;-65
2022/04/20 10:52:41;;;;;;;0.22;0.22;;;;;;;13.63;35.57;98066.28;5059760;28;20083;-64
2022/04/20 10:55:09;;;;;;;0.28;0.28;;;;;;;13.57;35.96;98066.53;5066963;28;20037;-66
2022/04/20 10:57:37;;;;;;;0.10;0.10;;;;;;;13.57;35.46;98066.53;5062099;28;20067;-67
2022/04/20 11:00:18;;;;;;;0.20;0.20;;;;;;;13.58;35.76;98068.22;5065880;28;20136;-66
2022/04/20 11:02:51;;;;;;;0.20;0.20;;;;;;;13.60;35.66;98066.84;5059077;28;20048;-66
2022/04/20 11:05:22;;;;;;;0.10;0.10;;;;;;;13.72;35.13;98065.75;5071420;28;20051;-66
2022/04/20 11:08:11;;;;;;;0.10;0.10;;;;;;;13.84;34.97;98061.63;5072024;28;20047;-66
2022/04/20 11:10:42;;;;;;;0.65;0.65;;;;;;;13.92;34.81;98068.53;5068248;28;20040;-64
2022/04/20 11:19:13;;;;;;;0.10;0.10;;;;;;;14.12;34.52;98076.00;5051868;28;20043;-65
2022/04/20 11:21:53;;;;;;;0.73;0.65;;;;;;;14.09;34.49;98062.75;5061645;28;20286;-64
2022/04/20 11:24:29;;;;;;;0.13;0.13;;;;;;;13.95;34.71;98067.16;5051352;28;20037;-63
2022/04/20 11:26:55;;;;;;;0.40;0.40;;;;;;;13.85;35.17;98070.72;5052852;28;20095;-63
2022/04/20 11:29:30;;;;;;;0.22;0.22;;;;;;;13.58;35.25;98069.03;5046130;28;20072;-64
2022/04/20 11:32:02;;;;;;;0.10;0.10;;;;;;;13.36;35.73;98060.97;5061618;28;20063;-63
2022/04/20 11:34:33;;;;;;;0.10;0.10;;;;;;;13.22;35.80;98062.56;5056165;28;20148;-64
2022/04/20 11:37:04;;;;;;;0.10;0.10;;;;;;;12.99;36.29;98066.63;5034111;28;20053;-65
2022/04/20 11:39:31;;;;;;;0.20;0.20;;;;;;;12.74;36.39;98063.47;5039046;28;20225;-64
2022/04/20 11:42:02;;;;;;;0.10;0.10;;;;;;;12.76;36.28;98057.69;5051259;28;20107;-63
2022/04/20 11:44:27;;;;;;;0.20;0.20;;;;;;;12.87;35.84;98062.16;5051508;28;20147;-65
2022/04/20 11:46:58;;;;;;;0.30;0.30;;;;;;;13.02;35.89;98055.88;5050999;28;20120;-64
2022/04/20 11:49:45;;;;;;;0.20;0.20;;;;;;;13.06;35.53;98053.41;5033191;28;20503;-64
2022/04/20 11:52:14;;;;;;;0.20;0.20;;;;;;;13.09;35.42;98063.91;5065443;28;20059;-64
2022/04/20 11:54:44;;;;;;;0.20;0.20;;;;;;;13.18;35.37;98056.78;5070290;28;20114;-64
2022/04/20 11:57:12;;;;;;;0.17;0.17;;;;;;;13.27;35.24;98059.81;5070956;28;20037;-64
2022/04/20 11:59:48;;;;;;;0.60;0.60;;;;;;;13.13;35.45;98051.22;5071047;28;20056;-64
2022/04/20 12:02:15;;;;;;;0.45;0.45;;;;;;;13.04;35.33;98052.84;5070887;28;20075;-64
2022/04/20 12:08:09;;;;;;;0.40;0.40;;;;;;;13.17;35.26;98046.00;5055236;28;20047;-63
2022/04/20 12:10:35;;;;;;;0.47;0.47;;;;;;;13.09;35.16;98061.16;5061771;28;20036;-62
2022/04/20 12:13:03;;;;;;;0.10;0.10;;;;;;;12.93;35.45;98055.56;5070982;28;20415;-65
2022/04/20 12:15:30;;;;;;;0.10;0.10;;;;;;;12.85;35.77;98058.81;5070252;28;20032;-65
2022/04/20 12:17:56;;;;;;;0.20;0.20;;;;;;;12.87;35.39;98037.34;5067400;28;20039;-64
2022/04/20 12:20:25;;;;;;;0.20;0.20;;;;;;;12.91;35.25;98062.44;5049714;28;20037;-64
2022/04/20 12:23:04;;;;;;;0.20;0.20;;;;;;;12.89;35.29;98053.63;5050953;28;20048;-64
2022/04/20 12:25:30;;;;;;;0.55;0.38;;;;;;;12.85;35.17;98055.25;5062837;28;20082;-66
2022/04/20 12:28:35;;;;;;;1.00;1.00;;;;;;;12.79;35.27;98041.47;5066348;28;20539;-66
2022/04/20 12:30:48;;;;;;;0.10;0.10;;;;;;;12.71;35.24;98052.16;5060805;28;20041;-64
2022/04/20 12:33:24;;;;;;;0.20;0.20;;;;;;;12.75;35.24;98047.75;5062942;28;20077;-64
2022/04/20 12:36:09;;;;;;;0.20;0.20;;;;;;;12.79;35.17;98037.84;5061749;28;20534;-64
2022/04/20 12:38:45;;;;;;;2.83;1.00;;;;;;;12.79;35.31;98041.47;5056976;28;20546;-63
2022/04/20 12:41:48;;;;;;;0.10;0.10;;;;;;;12.77;35.32;98060.16;5059954;28;20087;-64
2022/04/20 12:44:35;;;;;;;0.10;0.10;;;;;;;12.64;35.30;98055.13;5067846;28;20045;-65
2022/04/20 12:47:21;;;;;;;0.50;0.50;;;;;;;12.54;35.67;98061.41;5054236;28;20128;-64
2022/04/20 12:49:52;;;;;;;0.20;0.20;;;;;;;12.48;35.49;98062.47;5054953;28;20106;-62
2022/04/20 12:52:20;;;;;;;0.10;0.10;;;;;;;12.38;35.73;98055.00;5061057;28;20053;-62
2022/04/20 12:54:53;;;;;;;0.17;0.17;;;;;;;12.35;35.59;98057.44;5067972;28;20518;-65
2022/04/20 13:03:02;;;;;;;2.35;0.43;;;;;;;12.20;35.80;98049.91;5071415;28;20075;-66
2022/04/20 13:05:29;;;;;;;2.92;0.73;;;;;;;12.20;35.80;98047.16;5062143;28;20406;-64
2022/04/20 13:07:59;;;;;;;0.20;0.20;;;;;;;12.18;35.71;98052.09;5061172;28;20045;-64
2022/04/20 13:10:25;;;;;;;0.20;0.20;;;;;;;12.09;35.65;98057.25;5063710;28;20106;-65
2022/04/20 13:12:55;;;;;;;0.40;0.40;;;;;;;12.01;35.62;98049.47;5054964;28;20056;-63
2022/04/20 13:15:22;;;;;;;0.10;0.10;;;;;;;11.99;35.57;98043.44;5054723;28;20049;-67
2022/04/20 13:17:48;;;;;;;8.57;0.75;;;;;;;11.93;35.57;98045.31;5054892;28;20033;-62
2022/04/20 13:20:16;;;;;;;0.10;0.10;;;;;;;11.89;35.75;98049.63;5053743;28;20040;-65
2022/04/20 13:22:42;;;;;;;0.17;0.17;;;;;;;11.84;35.85;98049.59;5054602;28;20051;-64
2022/04/20 13:27:54;;;;;;;0.30;0.30;;;;;;;11.80;35.67;98048.47;5055075;28;20410;-66